Grafton, Ohio
Current Conditions -  °F | °C
As of 2:53 AM on Wednesday 26 Nov 2014 (Local Time) from KLPR Reporting Station
Overcast Overcast  
Wind Chill: 30°   Ceiling: 2200
Heat Index: 30°   Visibility: 10mi
Dew Point: 24°   Wind: 3mph
Humidity: 79%   Direction: 170°S
Pressure: 30.2"   Gusts: NA
Location:  41.27°N, 82.05°W
Report Text: KLPR 260753Z AUTO 17003KT 10SM OVC022 M01/M04 A3020 RMK AO2 SLP234 T10111044 TSNO
Loading
Personal Weather Stations






























Interactive Weather Map New forecast layout! Learn more

10-Day Weather Forecast

Advertisements
Track Severe Weather on mobile